Time;durP1;ratioP1;P1;durP2;ratioP2;P2;SDS_P1;SDS_P2;PMS_P1;PMS_P2;Temp;Humidity;BMP_temperature;BMP_pressure;BME280_temperature;BME280_humidity;BME280_pressure;Samples;Min_cycle;Max_cycle;Signal;HPM_P1;HPM_P2
2023/11/30 00:00:37;;;;;;;0.10;0.10;;;;;;;-0.66;92.68;98943.88;4866988;29;20181;-74
2023/11/30 00:03:03;;;;;;;0.10;0.10;;;;;;;-0.77;92.52;98931.28;4857847;29;20041;-76
2023/11/30 00:05:28;;;;;;;0.00;0.00;;;;;;;-0.71;92.74;98935.72;4859896;29;20033;-77
2023/11/30 00:07:56;;;;;;;0.10;0.10;;;;;;;-0.69;93.33;98938.97;4809070;29;20033;-77
2023/11/30 00:10:22;;;;;;;0.00;0.00;;;;;;;-0.66;92.86;98933.16;4858182;29;20384;-77
2023/11/30 00:12:47;;;;;;;0.00;0.00;;;;;;;-0.72;93.46;98920.66;4842187;29;20045;-78
2023/11/30 00:15:15;;;;;;;0.10;0.10;;;;;;;-0.61;93.39;98930.59;4850716;29;20029;-78
2023/11/30 00:17:40;;;;;;;0.10;0.10;;;;;;;-0.62;93.42;98918.22;4822417;29;20064;-77
2023/11/30 00:20:06;;;;;;;0.10;0.10;;;;;;;-0.59;94.02;98928.50;4838332;29;20117;-78
2023/11/30 00:22:32;;;;;;;0.00;0.00;;;;;;;-0.62;94.24;98915.53;4853729;29;20052;-77
2023/11/30 00:24:57;;;;;;;0.10;0.10;;;;;;;-0.62;94.29;98915.53;4834808;29;20033;-77
2023/11/30 00:27:23;;;;;;;0.10;0.10;;;;;;;-0.54;94.24;98919.75;4856910;29;20388;-77
2023/11/30 00:29:48;;;;;;;0.10;0.10;;;;;;;-0.53;94.56;98918.72;4832470;29;20038;-79
2023/11/30 00:32:13;;;;;;;0.00;0.00;;;;;;;-0.68;94.05;98903.03;4840461;29;20539;-76
2023/11/30 00:34:39;;;;;;;0.00;0.00;;;;;;;-0.60;94.09;98920.69;4849391;29;20029;-77
2023/11/30 00:37:04;;;;;;;0.10;0.10;;;;;;;-0.68;94.44;98918.34;4819340;29;20481;-76
2023/11/30 00:39:29;;;;;;;0.10;0.10;;;;;;;-0.78;95.38;98908.16;4826711;29;20034;-76
2023/11/30 00:41:55;;;;;;;0.10;0.10;;;;;;;-0.80;95.05;98896.84;4855429;29;20461;-76
2023/11/30 00:44:21;;;;;;;0.00;0.00;;;;;;;-0.80;94.69;98899.53;4844334;29;20036;-78
2023/11/30 00:46:48;;;;;;;0.00;0.00;;;;;;;-0.76;95.06;98906.03;4836450;29;20044;-79
2023/11/30 00:49:13;;;;;;;0.10;0.10;;;;;;;-0.85;95.58;98896.69;4845502;29;20088;-77
2023/11/30 00:51:39;;;;;;;0.10;0.10;;;;;;;-0.82;94.97;98907.78;4839536;29;20037;-77
2023/11/30 00:54:04;;;;;;;0.10;0.10;;;;;;;-0.96;95.14;98885.69;4849349;29;20085;-76
2023/11/30 00:56:30;;;;;;;0.08;0.08;;;;;;;-0.95;95.03;98887.34;4865703;29;20203;-76
2023/11/30 00:58:55;;;;;;;0.10;0.10;;;;;;;-0.91;95.07;98883.13;4832038;29;20108;-75
2023/11/30 01:01:20;;;;;;;0.10;0.10;;;;;;;-0.90;95.21;98895.50;4847398;29;20025;-77
2023/11/30 01:03:47;;;;;;;0.00;0.00;;;;;;;-0.88;94.98;98896.09;4833628;29;20124;-77
2023/11/30 01:06:14;;;;;;;0.10;0.10;;;;;;;-0.94;94.73;98882.78;4823851;29;20052;-79
2023/11/30 01:08:40;;;;;;;0.00;0.00;;;;;;;-0.91;94.63;98893.84;4843703;29;20041;-79
2023/11/30 01:11:06;;;;;;;0.00;0.00;;;;;;;-0.93;95.49;98884.41;4832913;29;20042;-80
2023/11/30 01:13:31;;;;;;;0.10;0.10;;;;;;;-0.86;95.57;98884.31;4848730;29;20033;-79
2023/11/30 01:15:57;;;;;;;0.10;0.10;;;;;;;-0.98;95.01;98871.69;4843405;29;20477;-78
2023/11/30 01:18:22;;;;;;;0.10;0.10;;;;;;;-0.92;95.66;98859.19;4842000;29;20171;-77
2023/11/30 01:20:50;;;;;;;0.00;0.00;;;;;;;-0.89;95.57;98848.84;4855804;29;20031;-77
2023/11/30 01:23:16;;;;;;;0.10;0.10;;;;;;;-0.68;95.16;98881.56;4866775;29;20025;-77
2023/11/30 01:25:41;;;;;;;0.10;0.10;;;;;;;-0.66;95.17;98881.34;4860354;29;20033;-76
2023/11/30 01:28:07;;;;;;;0.10;0.10;;;;;;;-0.71;94.67;98884.72;4828924;29;20049;-76
2023/11/30 01:30:32;;;;;;;0.00;0.00;;;;;;;-0.71;95.15;98888.19;4833387;29;20503;-75
2023/11/30 01:32:57;;;;;;;0.00;0.00;;;;;;;-0.67;95.16;98885.88;4819689;29;20129;-77
2023/11/30 01:35:25;;;;;;;0.10;0.10;;;;;;;-0.61;94.48;98895.69;4849289;29;20064;-79
2023/11/30 01:37:50;;;;;;;0.00;0.00;;;;;;;-0.59;94.54;98888.22;4842552;29;20038;-77
2023/11/30 01:40:16;;;;;;;0.10;0.10;;;;;;;-0.58;94.13;98892.56;4821906;29;20037;-76
2023/11/30 01:42:41;;;;;;;0.00;0.00;;;;;;;-0.51;94.53;98891.63;4830038;29;20039;-78
2023/11/30 01:45:07;;;;;;;0.00;0.00;;;;;;;-0.55;93.84;98889.41;4838577;29;20035;-78
2023/11/30 01:47:33;;;;;;;0.00;0.00;;;;;;;-0.51;94.01;98886.25;4836345;29;20443;-78
2023/11/30 01:50:02;;;;;;;0.00;0.00;;;;;;;-0.45;93.84;98890.69;4833964;29;20032;-78
2023/11/30 01:52:30;;;;;;;0.10;0.10;;;;;;;-0.42;94.00;98882.19;4817720;29;20100;-77
2023/11/30 01:54:57;;;;;;;0.10;0.10;;;;;;;-0.36;93.04;98883.94;4814044;29;20522;-77
2023/11/30 01:57:22;;;;;;;0.00;0.00;;;;;;;-0.42;93.17;98863.41;4855965;29;20041;-76
2023/11/30 01:59:48;;;;;;;0.10;0.10;;;;;;;-0.44;93.31;98846.69;4833298;29;20040;-77
2023/11/30 02:02:16;;;;;;;0.10;0.10;;;;;;;-0.25;93.56;98877.78;4863995;29;20058;-77
2023/11/30 02:04:42;;;;;;;0.10;0.10;;;;;;;-0.23;93.05;98878.34;4844327;29;20045;-76
2023/11/30 02:07:09;;;;;;;0.00;0.00;;;;;;;-0.24;92.78;98874.03;4849657;29;20045;-77
2023/11/30 02:09:37;;;;;;;0.10;0.10;;;;;;;-0.27;92.79;98871.00;4835192;29;20879;-77
2023/11/30 02:12:02;;;;;;;0.00;0.00;;;;;;;-0.29;93.06;98867.69;4834877;29;20065;-76
2023/11/30 02:14:32;;;;;;;0.10;0.10;;;;;;;-0.15;93.03;98873.69;4836550;29;21459;-76
2023/11/30 02:16:57;;;;;;;0.00;0.00;;;;;;;-0.09;93.01;98881.63;4840715;29;20044;-76
2023/11/30 02:19:23;;;;;;;0.10;0.10;;;;;;;-0.08;92.92;98869.00;4870637;29;20042;-77
2023/11/30 02:21:52;;;;;;;0.00;0.00;;;;;;;-0.08;92.69;98869.81;4835307;29;20234;-76
2023/11/30 02:24:17;;;;;;;0.10;0.10;;;;;;;-0.06;92.56;98866.88;4846918;29;20036;-75
2023/11/30 02:26:43;;;;;;;0.10;0.10;;;;;;;0.01;92.52;98872.16;4839835;29;20038;-77
2023/11/30 02:29:08;;;;;;;0.10;0.10;;;;;;;0.05;92.34;98884.09;4834565;29;20128;-78
2023/11/30 02:31:36;;;;;;;0.10;0.10;;;;;;;-0.02;92.17;98881.50;4818435;29;20935;-77
2023/11/30 02:34:01;;;;;;;0.10;0.10;;;;;;;-0.07;92.28;98886.78;4829934;29;20038;-76
2023/11/30 02:36:27;;;;;;;0.00;0.00;;;;;;;-0.10;92.48;98892.59;4855799;29;20037;-78
2023/11/30 02:38:52;;;;;;;0.10;0.10;;;;;;;-0.18;93.18;98885.72;4842888;29;20096;-76
2023/11/30 02:41:20;;;;;;;0.08;0.08;;;;;;;-0.22;92.72;98889.91;4846622;29;20505;-77
2023/11/30 02:43:45;;;;;;;0.10;0.10;;;;;;;-0.21;92.41;98897.72;4833855;29;20037;-76
2023/11/30 02:46:13;;;;;;;0.10;0.10;;;;;;;-0.26;92.89;98888.75;4836180;29;20480;-77
2023/11/30 02:48:38;;;;;;;0.03;0.03;;;;;;;-0.26;92.57;98878.81;4837113;29;20028;-77
2023/11/30 02:51:04;;;;;;;0.10;0.10;;;;;;;-0.22;92.64;98880.00;4836502;29;20529;-77
2023/11/30 02:53:30;;;;;;;0.00;0.00;;;;;;;-0.13;92.51;98882.31;4849950;29;20041;-78
2023/11/30 02:55:58;;;;;;;0.00;0.00;;;;;;;-0.10;92.69;98876.47;4837522;29;20052;-77
2023/11/30 02:58:23;;;;;;;0.00;0.00;;;;;;;-0.04;92.46;98884.41;4867021;29;20441;-77
2023/11/30 03:00:49;;;;;;;0.00;0.00;;;;;;;-0.03;91.77;98882.53;4856275;29;20094;-75
2023/11/30 03:03:14;;;;;;;0.00;0.00;;;;;;;-0.08;91.66;98874.38;4835421;29;20044;-76
2023/11/30 03:05:39;;;;;;;0.10;0.10;;;;;;;0.00;92.06;98882.09;4830278;29;20038;-78
2023/11/30 03:08:05;;;;;;;0.00;0.00;;;;;;;0.00;91.44;98892.84;4826475;29;20037;-76
2023/11/30 03:10:30;;;;;;;0.00;0.00;;;;;;;0.00;91.37;98892.84;4821911;29;20108;-78
2023/11/30 03:12:56;;;;;;;0.10;0.10;;;;;;;0.00;91.77;98882.09;4828423;29;20030;-79
2023/11/30 03:15:25;;;;;;;0.10;0.10;;;;;;;-0.04;91.74;98880.94;4848575;29;20081;-77
2023/11/30 03:17:50;;;;;;;0.10;0.10;;;;;;;-0.10;91.70;98881.84;4855501;29;20028;-78
2023/11/30 03:20:16;;;;;;;0.00;0.00;;;;;;;-0.10;92.40;98879.16;4853601;29;20089;-77
2023/11/30 03:22:41;;;;;;;0.10;0.10;;;;;;;-0.07;91.94;98886.78;4838468;29;20049;-77
2023/11/30 03:25:07;;;;;;;0.10;0.10;;;;;;;0.04;91.95;98885.13;4871356;29;20472;-77
2023/11/30 03:27:33;;;;;;;0.00;0.00;;;;;;;0.13;91.74;98871.09;4847095;29;20045;-76
2023/11/30 03:29:58;;;;;;;0.10;0.10;;;;;;;0.19;91.48;98868.50;4843433;29;20040;-76
2023/11/30 03:32:24;;;;;;;0.00;0.00;;;;;;;0.24;91.36;98864.06;4844890;29;20048;-80
2023/11/30 03:34:49;;;;;;;0.00;0.00;;;;;;;0.27;91.25;98854.72;4835789;29;20068;-78
2023/11/30 03:37:15;;;;;;;0.10;0.10;;;;;;;0.13;91.34;98833.47;4844240;29;20111;-79
2023/11/30 03:39:40;;;;;;;0.00;0.00;;;;;;;0.29;90.96;98863.34;4839805;29;20033;-79
2023/11/30 03:42:08;;;;;;;0.10;0.10;;;;;;;0.19;91.23;98865.81;4839526;29;20050;-77
2023/11/30 03:44:33;;;;;;;0.00;0.00;;;;;;;0.17;91.24;98866.84;4819437;29;20118;-79
2023/11/30 03:46:59;;;;;;;0.00;0.00;;;;;;;0.09;90.89;98869.94;4849130;29;20124;-79
2023/11/30 03:49:27;;;;;;;0.05;0.05;;;;;;;0.03;91.15;98870.88;4851984;29;21349;-78
2023/11/30 03:51:52;;;;;;;0.08;0.08;;;;;;;0.05;90.79;98874.13;4854605;29;20115;-78
2023/11/30 03:54:18;;;;;;;0.10;0.10;;;;;;;-0.06;91.21;98850.75;4822679;29;20037;-78
2023/11/30 03:56:43;;;;;;;0.00;0.00;;;;;;;-0.02;90.95;98874.25;4840190;29;20036;-79
2023/11/30 03:59:12;;;;;;;0.10;0.10;;;;;;;-0.07;91.11;98870.66;4862591;29;20037;-78
2023/11/30 04:01:37;;;;;;;0.00;0.00;;;;;;;-0.11;91.49;98861.41;4843536;29;20073;-80
2023/11/30 04:04:03;;;;;;;0.00;0.00;;;;;;;0.01;90.82;98875.66;4841754;29;20116;-78
2023/11/30 04:06:28;;;;;;;0.10;0.10;;;;;;;0.03;91.14;98868.19;4837348;29;20482;-79
2023/11/30 04:08:59;;;;;;;0.00;0.00;;;;;;;-0.02;90.90;98857.31;4834507;29;20032;-79
2023/11/30 04:11:24;;;;;;;0.00;0.00;;;;;;;0.13;90.96;98871.09;4858914;29;20021;-81
2023/11/30 04:13:50;;;;;;;0.10;0.10;;;;;;;0.23;90.95;98858.91;4852018;29;20051;-79
2023/11/30 04:16:17;;;;;;;0.00;0.00;;;;;;;0.25;90.81;98852.25;4837112;29;20121;-80
2023/11/30 04:18:45;;;;;;;0.10;0.10;;;;;;;0.26;90.03;98836.94;4848018;29;20029;-79
2023/11/30 04:21:11;;;;;;;0.00;0.00;;;;;;;0.39;90.29;98852.00;4857102;29;20124;-79
2023/11/30 04:23:36;;;;;;;0.00;0.00;;;;;;;0.47;90.43;98860.50;4856774;29;20041;-79
2023/11/30 04:26:05;;;;;;;0.00;0.00;;;;;;;0.44;90.13;98844.84;4877249;29;20071;-79
2023/11/30 04:28:31;;;;;;;0.00;0.00;;;;;;;0.63;89.90;98858.94;4843592;29;20081;-76
2023/11/30 04:30:56;;;;;;;0.00;0.00;;;;;;;0.65;89.83;98864.06;4823975;29;20108;-76
2023/11/30 04:33:22;;;;;;;0.00;0.00;;;;;;;0.67;89.72;98851.19;4820696;29;20103;-75
2023/11/30 04:35:47;;;;;;;0.10;0.10;;;;;;;0.77;89.82;98870.22;4843668;29;20076;-75
2023/11/30 04:38:13;;;;;;;0.00;0.00;;;;;;;0.84;89.65;98875.47;4852121;29;20073;-74
2023/11/30 04:40:38;;;;;;;0.00;0.00;;;;;;;0.73;89.84;98858.31;4854355;29;20028;-74
2023/11/30 04:43:04;;;;;;;0.00;0.00;;;;;;;0.82;89.83;98867.63;4854028;29;20068;-74
2023/11/30 04:45:29;;;;;;;0.00;0.00;;;;;;;0.78;89.29;98869.16;4845288;29;20029;-74
2023/11/30 04:47:55;;;;;;;0.00;0.00;;;;;;;0.69;89.58;98862.53;4839878;29;20080;-73
2023/11/30 04:50:20;;;;;;;0.00;0.00;;;;;;;0.67;89.30;98870.84;4837109;29;20030;-75
2023/11/30 04:52:45;;;;;;;0.10;0.10;;;;;;;0.59;89.38;98846.22;4848210;29;20037;-76
2023/11/30 04:55:11;;;;;;;0.00;0.00;;;;;;;0.63;88.89;98852.75;4836148;29;20448;-76
2023/11/30 04:57:39;;;;;;;0.00;0.00;;;;;;;0.66;89.44;98841.50;4840194;29;20037;-76
2023/11/30 05:00:05;;;;;;;0.00;0.00;;;;;;;0.71;89.69;98846.97;4852815;29;20046;-76
2023/11/30 05:02:31;;;;;;;0.00;0.00;;;;;;;0.75;89.02;98845.44;4851421;29;20520;-76
2023/11/30 05:04:59;;;;;;;0.00;0.00;;;;;;;0.64;89.24;98838.22;4827896;29;20067;-76
2023/11/30 05:07:24;;;;;;;0.10;0.10;;;;;;;0.58;89.63;98823.03;4848692;29;20039;-75
2023/11/30 05:09:50;;;;;;;0.00;0.00;;;;;;;0.67;89.13;98837.72;4824494;29;20048;-75
2023/11/30 05:12:16;;;;;;;0.00;0.00;;;;;;;0.71;89.15;98860.41;4842185;29;20036;-75
2023/11/30 05:14:41;;;;;;;0.00;0.00;;;;;;;0.66;89.85;98852.25;4845300;29;20065;-75
2023/11/30 05:17:09;;;;;;;0.00;0.00;;;;;;;0.62;88.82;98857.28;4841194;29;20056;-76
2023/11/30 05:19:35;;;;;;;0.10;0.10;;;;;;;0.56;89.57;98846.69;4833501;29;20090;-75
2023/11/30 05:22:00;;;;;;;0.00;0.00;;;;;;;0.59;89.29;98852.41;4822081;29;20381;-75
2023/11/30 05:24:25;;;;;;;0.00;0.00;;;;;;;0.57;89.23;98853.69;4839692;29;20492;-75
2023/11/30 05:26:51;;;;;;;0.00;0.00;;;;;;;0.42;89.38;98846.94;4861696;29;20182;-75
2023/11/30 05:29:16;;;;;;;0.00;0.00;;;;;;;0.42;89.55;98854.19;4817828;29;20045;-75
2023/11/30 05:31:42;;;;;;;0.00;0.00;;;;;;;0.27;90.16;98855.50;4870348;29;20063;-76
2023/11/30 05:34:07;;;;;;;0.10;0.10;;;;;;;0.24;90.14;98850.63;4833736;29;20091;-76
2023/11/30 05:36:37;;;;;;;0.00;0.00;;;;;;;0.17;90.17;98828.41;4839122;29;20041;-74
2023/11/30 05:39:03;;;;;;;0.10;0.10;;;;;;;0.32;90.80;98846.72;4836686;29;20121;-75
2023/11/30 05:41:32;;;;;;;0.00;0.00;;;;;;;0.44;90.37;98844.84;4867823;29;20033;-75
2023/11/30 05:43:57;;;;;;;0.00;0.00;;;;;;;0.40;90.33;98830.22;4839272;29;20057;-75
2023/11/30 05:46:23;;;;;;;0.00;0.00;;;;;;;0.48;89.85;98829.88;4859082;29;20465;-76
2023/11/30 05:48:48;;;;;;;0.00;0.00;;;;;;;0.55;89.70;98835.09;4847978;29;20040;-76
2023/11/30 05:51:16;;;;;;;0.10;0.10;;;;;;;0.48;89.66;98818.28;4853867;29;20037;-76
2023/11/30 05:53:41;;;;;;;0.10;0.10;;;;;;;0.44;89.03;98815.25;4855348;29;20089;-76
2023/11/30 05:56:07;;;;;;;0.00;0.00;;;;;;;0.63;89.06;98842.00;4824110;29;20033;-74
2023/11/30 05:58:35;;;;;;;0.00;0.00;;;;;;;0.60;88.65;98842.44;4837713;29;20041;-75
2023/11/30 06:01:00;;;;;;;0.00;0.00;;;;;;;0.65;89.18;98839.88;4847926;29;20427;-74
2023/11/30 06:03:26;;;;;;;0.10;0.10;;;;;;;0.69;89.38;98843.72;4841384;29;20128;-76
2023/11/30 06:05:51;;;;;;;0.00;0.00;;;;;;;0.66;89.67;98841.50;4852999;29;20040;-76
2023/11/30 06:08:17;;;;;;;0.00;0.00;;;;;;;0.54;89.99;98835.34;4833088;29;20037;-76
2023/11/30 06:10:42;;;;;;;0.00;0.00;;;;;;;0.46;89.70;98837.34;4822229;29;20039;-75
2023/11/30 06:13:08;;;;;;;0.00;0.00;;;;;;;0.49;89.90;98836.06;4853313;29;20038;-75
2023/11/30 06:15:33;;;;;;;0.00;0.00;;;;;;;0.50;89.74;98843.88;4834273;29;20044;-76
2023/11/30 06:17:58;;;;;;;0.10;0.10;;;;;;;0.45;89.83;98851.88;4823310;29;20501;-77
2023/11/30 06:20:24;;;;;;;0.00;0.00;;;;;;;0.54;89.91;98864.91;4832487;29;20468;-75
2023/11/30 06:22:49;;;;;;;0.10;0.10;;;;;;;0.41;90.00;98848.00;4852414;29;20045;-77
2023/11/30 06:25:15;;;;;;;0.00;0.00;;;;;;;0.47;89.49;98860.50;4827337;29;20112;-77
2023/11/30 06:27:40;;;;;;;0.10;0.10;;;;;;;0.51;89.22;98856.28;4848831;29;20041;-75
2023/11/30 06:30:09;;;;;;;0.00;0.00;;;;;;;0.56;89.74;98847.50;4845406;29;20082;-76
2023/11/30 06:32:35;;;;;;;0.00;0.00;;;;;;;0.71;89.31;98860.41;4844469;29;20124;-76
2023/11/30 06:35:00;;;;;;;0.10;0.10;;;;;;;0.80;89.81;98864.34;4848867;29;20132;-75
2023/11/30 06:37:25;;;;;;;0.00;0.00;;;;;;;0.72;89.36;98845.91;4850596;29;20111;-76
2023/11/30 06:39:51;;;;;;;0.00;0.00;;;;;;;0.90;89.51;98868.31;4850325;29;20032;-75
2023/11/30 06:42:16;;;;;;;0.00;0.00;;;;;;;0.94;89.64;98859.50;4843570;29;20044;-76
2023/11/30 06:44:47;;;;;;;0.00;0.00;;;;;;;1.01;89.29;98854.00;4861483;29;20447;-75
2023/11/30 06:47:13;;;;;;;0.00;0.00;;;;;;;1.01;89.66;98845.91;4865032;29;20165;-77
2023/11/30 06:49:38;;;;;;;0.10;0.10;;;;;;;1.04;89.38;98832.78;4817229;29;20132;-77
2023/11/30 06:52:04;;;;;;;0.10;0.10;;;;;;;1.10;89.57;98857.91;4857391;29;20051;-76
2023/11/30 06:54:29;;;;;;;0.00;0.00;;;;;;;1.02;89.43;98853.75;4839797;29;20033;-76
2023/11/30 06:56:55;;;;;;;0.00;0.00;;;;;;;1.07;89.72;98853.00;4836996;29;20024;-76
2023/11/30 06:59:20;;;;;;;0.00;0.00;;;;;;;1.18;89.41;98859.38;4841385;29;20510;-76
2023/11/30 07:01:46;;;;;;;0.10;0.10;;;;;;;1.30;88.83;98867.41;4871532;29;20037;-74
2023/11/30 07:04:12;;;;;;;0.00;0.00;;;;;;;1.35;89.58;98875.56;4864714;29;20139;-74
2023/11/30 07:06:37;;;;;;;0.00;0.00;;;;;;;1.21;89.34;98859.72;4857690;29;20026;-75
2023/11/30 07:09:04;;;;;;;0.00;0.00;;;;;;;1.37;89.88;98878.81;4866984;29;20053;-75
2023/11/30 07:11:29;;;;;;;0.10;0.10;;;;;;;1.41;89.88;98885.38;4847887;29;20453;-76
2023/11/30 07:14:06;;;;;;;0.00;0.00;;;;;;;1.40;90.18;98878.34;4857065;29;20132;-74
2023/11/30 07:16:31;;;;;;;0.00;0.00;;;;;;;1.46;89.81;98872.00;4852578;29;20065;-75
2023/11/30 07:18:57;;;;;;;0.00;0.00;;;;;;;1.52;90.11;98887.19;4843488;29;21393;-76
2023/11/30 07:21:26;;;;;;;0.00;0.00;;;;;;;1.48;90.30;98888.72;4856931;29;20037;-74
2023/11/30 07:23:51;;;;;;;0.00;0.00;;;;;;;1.51;90.44;98885.53;4833393;29;20077;-76
2023/11/30 07:26:17;;;;;;;0.00;0.00;;;;;;;1.70;90.71;98888.00;4831980;29;20856;-75
2023/11/30 07:28:42;;;;;;;0.00;0.00;;;;;;;1.77;91.15;98877.88;4799574;29;1236398;-76
2023/11/30 07:31:16;;;;;;;0.00;0.00;;;;;;;1.83;91.94;98871.50;4826016;29;20037;-75
2023/11/30 07:33:41;;;;;;;0.10;0.10;;;;;;;1.92;92.06;98878.09;4850787;29;20026;-75
2023/11/30 07:36:08;;;;;;;0.00;0.00;;;;;;;2.08;92.86;98891.81;4855054;29;20047;-75
2023/11/30 07:38:33;;;;;;;0.00;0.00;;;;;;;2.21;93.13;98882.56;4850788;29;20049;-75
2023/11/30 07:40:59;;;;;;;0.00;0.00;;;;;;;2.31;93.79;98898.88;4851083;29;20085;-75
2023/11/30 07:43:25;;;;;;;0.00;0.00;;;;;;;2.36;93.55;98890.03;4852773;29;20380;-75
2023/11/30 07:45:50;;;;;;;0.00;0.00;;;;;;;2.27;94.46;98892.34;4852137;29;21613;-78
2023/11/30 07:48:16;;;;;;;0.00;0.00;;;;;;;2.09;94.26;98885.34;4839205;29;20033;-75
2023/11/30 07:50:41;;;;;;;0.00;0.00;;;;;;;1.91;92.50;98911.53;4845597;29;20396;-74
2023/11/30 07:53:09;;;;;;;0.00;0.00;;;;;;;1.66;91.19;98903.03;4848998;29;20042;-76
2023/11/30 07:55:34;;;;;;;0.10;0.10;;;;;;;1.44;90.06;98895.66;4857432;29;20056;-74
2023/11/30 07:58:00;;;;;;;0.03;0.03;;;;;;;1.30;89.17;98891.63;4854202;29;20044;-75
2023/11/30 08:00:25;;;;;;;0.00;0.00;;;;;;;1.28;88.90;98904.53;4844541;29;20124;-75
2023/11/30 08:02:52;;;;;;;0.10;0.10;;;;;;;1.16;88.84;98900.03;4839357;29;20029;-75
2023/11/30 08:05:19;;;;;;;0.00;0.00;;;;;;;1.06;88.03;98904.41;4848302;29;20068;-75
2023/11/30 08:07:44;;;;;;;0.00;0.00;;;;;;;0.95;88.21;98892.63;4863290;29;20028;-75
2023/11/30 08:10:10;;;;;;;0.00;0.00;;;;;;;1.00;87.59;98900.81;4840427;29;20515;-74
2023/11/30 08:12:35;;;;;;;0.00;0.00;;;;;;;0.97;87.81;98890.53;4862269;29;20061;-75
2023/11/30 08:15:01;;;;;;;0.00;0.00;;;;;;;1.00;87.91;98900.81;4831932;29;20120;-76
2023/11/30 08:17:26;;;;;;;0.10;0.10;;;;;;;1.05;87.82;98903.56;4821783;29;20095;-75
2023/11/30 08:19:52;;;;;;;0.00;0.00;;;;;;;1.02;87.56;98904.91;4851730;29;20065;-74
2023/11/30 08:22:17;;;;;;;0.00;0.00;;;;;;;1.00;87.76;98898.09;4832373;29;20048;-75
2023/11/30 08:24:43;;;;;;;0.10;0.10;;;;;;;0.93;87.56;98886.66;4837709;29;20032;-75
2023/11/30 08:27:08;;;;;;;0.00;0.00;;;;;;;0.98;87.76;98889.44;4818496;29;20037;-75
2023/11/30 08:29:36;;;;;;;0.10;0.10;;;;;;;1.04;87.18;98899.28;4829996;29;20148;-74
2023/11/30 08:32:02;;;;;;;0.00;0.00;;;;;;;1.05;87.73;98906.25;4825665;29;20044;-75
2023/11/30 08:34:28;;;;;;;0.00;0.00;;;;;;;1.07;87.45;98906.03;4835601;29;20134;-75
2023/11/30 08:36:53;;;;;;;0.10;0.10;;;;;;;1.11;87.65;98902.63;4841712;29;20113;-75
2023/11/30 08:39:23;;;;;;;0.00;0.00;;;;;;;1.13;87.36;98905.88;4827255;29;20029;-76
2023/11/30 08:41:49;;;;;;;0.00;0.00;;;;;;;1.14;87.62;98902.16;4823227;29;20039;-75
2023/11/30 08:44:14;;;;;;;0.00;0.00;;;;;;;1.22;87.19;98917.09;4835884;29;20499;-76
2023/11/30 08:46:40;;;;;;;0.00;0.00;;;;;;;1.16;86.84;98901.91;4834434;29;20037;-75
2023/11/30 08:49:05;;;;;;;0.00;0.00;;;;;;;1.24;87.34;98906.06;4820506;29;20181;-76
2023/11/30 08:51:31;;;;;;;0.10;0.10;;;;;;;1.36;87.10;98914.94;4837523;29;20073;-76
2023/11/30 08:54:04;;;;;;;0.05;0.05;;;;;;;1.35;87.08;98910.59;4823708;29;20829;-76
2023/11/30 08:56:33;;;;;;;0.03;0.03;;;;;;;1.46;87.04;98920.50;4829547;29;20133;-74
2023/11/30 08:58:59;;;;;;;0.00;0.00;;;;;;;1.35;86.68;98897.13;4833413;29;20045;-75
2023/11/30 09:01:25;;;;;;;0.00;0.00;;;;;;;1.54;86.34;98916.56;4848157;29;20029;-74
2023/11/30 09:03:53;;;;;;;0.00;0.00;;;;;;;1.56;86.59;98919.81;4843156;29;20063;-74
2023/11/30 09:06:19;;;;;;;0.00;0.00;;;;;;;1.61;86.64;98928.00;4841253;29;20036;-75
2023/11/30 09:08:44;;;;;;;0.00;0.00;;;;;;;1.62;86.26;98923.44;4843732;29;21622;-75
2023/11/30 09:11:10;;;;;;;0.00;0.00;;;;;;;1.73;85.97;98920.66;4840524;29;20033;-75
2023/11/30 09:13:35;;;;;;;0.00;0.00;;;;;;;1.89;85.67;98924.41;4854469;29;20024;-75
2023/11/30 09:16:01;;;;;;;0.00;0.00;;;;;;;1.99;84.94;98928.34;4849089;29;20036;-76
2023/11/30 09:18:26;;;;;;;0.00;0.00;;;;;;;2.04;85.26;98931.09;4852554;29;20481;-76
2023/11/30 09:20:52;;;;;;;0.00;0.00;;;;;;;2.23;85.08;98940.59;4841329;29;20047;-74
2023/11/30 09:23:17;;;;;;;0.00;0.00;;;;;;;2.23;84.55;98927.09;4853837;29;20078;-75
2023/11/30 09:25:43;;;;;;;0.00;0.00;;;;;;;2.34;83.84;98924.53;4863186;29;20032;-76
2023/11/30 09:28:09;;;;;;;0.00;0.00;;;;;;;2.50;83.53;98933.63;4822679;29;20049;-76
2023/11/30 09:30:35;;;;;;;0.10;0.10;;;;;;;2.35;83.84;98907.25;4849749;29;20761;-75
2023/11/30 09:33:00;;;;;;;0.00;0.00;;;;;;;2.54;83.19;98930.22;4867475;29;20120;-76
2023/11/30 09:35:26;;;;;;;0.00;0.00;;;;;;;2.64;83.65;98912.50;4830522;29;20033;-74
2023/11/30 09:37:52;;;;;;;0.00;0.00;;;;;;;2.84;82.60;98926.25;4819860;29;20476;-75
2023/11/30 09:40:17;;;;;;;0.10;0.10;;;;;;;3.05;82.40;98932.72;4831838;29;20049;-76
2023/11/30 09:42:43;;;;;;;0.00;0.00;;;;;;;3.20;81.97;98925.81;4817078;29;20469;-75
2023/11/30 09:45:09;;;;;;;0.08;0.08;;;;;;;3.32;80.98;98935.41;4835948;29;20460;-75
2023/11/30 09:47:34;;;;;;;0.00;0.00;;;;;;;3.53;81.24;98941.03;4856269;29;20025;-75
2023/11/30 09:50:03;;;;;;;0.00;0.00;;;;;;;3.64;80.62;98931.94;4839092;29;20425;-75
2023/11/30 09:52:29;;;;;;;0.00;0.00;;;;;;;3.97;79.43;98935.47;4822597;29;20230;-75
2023/11/30 09:54:58;;;;;;;0.00;0.00;;;;;;;4.25;77.70;98924.53;4848519;29;20100;-76
2023/11/30 09:57:24;;;;;;;0.00;0.00;;;;;;;4.50;76.21;98924.69;4844891;29;20057;-76
2023/11/30 09:59:54;;;;;;;0.10;0.10;;;;;;;4.68;75.77;98934.25;4839992;29;20064;-77
2023/11/30 10:02:22;;;;;;;0.00;0.00;;;;;;;4.94;74.84;98926.25;4847713;29;20470;-76
2023/11/30 10:04:49;;;;;;;0.10;0.10;;;;;;;5.38;73.35;98928.53;4839436;29;20029;-77
2023/11/30 10:07:15;;;;;;;0.10;0.10;;;;;;;5.76;72.41;98937.25;4856628;29;20049;-75
2023/11/30 10:09:41;;;;;;;0.00;0.00;;;;;;;5.98;70.88;98938.91;4845526;29;20045;-75
2023/11/30 10:12:07;;;;;;;0.00;0.00;;;;;;;5.74;70.38;98923.16;4852333;29;20031;-75
2023/11/30 10:14:33;;;;;;;0.00;0.00;;;;;;;5.48;70.75;98935.88;4873648;29;20028;-75
2023/11/30 10:17:01;;;;;;;0.00;0.00;;;;;;;5.21;70.62;98946.91;4810697;29;20116;-74
2023/11/30 10:19:28;;;;;;;0.10;0.10;;;;;;;4.81;71.45;98948.41;4852506;29;20080;-75
2023/11/30 10:21:57;;;;;;;0.00;0.00;;;;;;;4.43;72.07;98942.25;4834145;29;20498;-75
2023/11/30 10:24:23;;;;;;;0.00;0.00;;;;;;;4.17;72.70;98939.38;4835324;29;20030;-75
2023/11/30 10:26:57;;;;;;;0.00;0.00;;;;;;;4.04;73.52;98934.41;4841231;29;20044;-75
2023/11/30 10:29:23;;;;;;;0.10;0.10;;;;;;;3.97;74.07;98945.44;4851687;29;20060;-75
2023/11/30 10:31:55;;;;;;;0.10;0.10;;;;;;;3.80;74.66;98932.09;4851825;29;20507;-77
2023/11/30 10:34:28;;;;;;;0.00;0.00;;;;;;;3.77;74.50;98954.22;4848053;29;20040;-75
2023/11/30 10:36:55;;;;;;;0.10;0.10;;;;;;;3.63;74.51;98938.41;4856120;29;20021;-76
2023/11/30 10:39:22;;;;;;;0.10;0.10;;;;;;;3.41;75.29;98943.88;4851335;29;20233;-77
2023/11/30 10:41:53;;;;;;;0.10;0.10;;;;;;;3.37;75.45;98936.53;4850267;29;20036;-75
2023/11/30 10:44:25;;;;;;;0.00;0.00;;;;;;;3.30;75.87;98940.28;4858151;29;20029;-75
2023/11/30 10:47:00;;;;;;;0.00;0.00;;;;;;;3.34;75.92;98947.88;4859300;29;20026;-75
2023/11/30 10:49:31;;;;;;;0.00;0.00;;;;;;;3.25;75.98;98951.00;4853450;29;20021;-74
2023/11/30 10:52:02;;;;;;;0.00;0.00;;;;;;;3.10;77.04;98923.84;4853869;29;20029;-75
2023/11/30 10:54:37;;;;;;;0.00;0.00;;;;;;;3.13;77.79;98926.03;4850048;29;20108;-75
2023/11/30 10:57:03;;;;;;;0.00;0.00;;;;;;;3.16;77.43;98936.34;4875325;29;20039;-75
2023/11/30 10:59:30;;;;;;;0.00;0.00;;;;;;;3.13;78.14;98936.84;4832076;29;20040;-76
2023/11/30 11:01:56;;;;;;;0.10;0.10;;;;;;;3.18;78.26;98945.00;4845253;29;20025;-75
2023/11/30 11:04:29;;;;;;;0.10;0.10;;;;;;;3.16;78.20;98938.22;4851277;29;20038;-76
2023/11/30 11:07:06;;;;;;;0.10;0.10;;;;;;;3.16;78.10;98941.75;4841915;29;20083;-75
2023/11/30 11:09:51;;;;;;;0.00;0.00;;;;;;;3.08;77.62;98926.81;4847699;29;20040;-75
2023/11/30 11:12:24;;;;;;;0.10;0.10;;;;;;;3.14;77.85;98933.09;4866831;29;20032;-75
2023/11/30 11:14:52;;;;;;;0.10;0.10;;;;;;;3.08;78.95;98931.38;4873593;29;20028;-75
2023/11/30 11:17:24;;;;;;;0.00;0.00;;;;;;;3.05;78.55;98940.00;4856520;29;20033;-75
2023/11/30 11:19:58;;;;;;;0.00;0.00;;;;;;;3.05;79.35;98929.19;4863350;29;20026;-75
2023/11/30 11:22:24;;;;;;;0.00;0.00;;;;;;;3.06;78.89;98930.81;4852225;29;20418;-75
2023/11/30 11:24:57;;;;;;;0.00;0.00;;;;;;;3.06;79.60;98920.03;4848431;29;20029;-75
2023/11/30 11:27:31;;;;;;;0.00;0.00;;;;;;;3.08;79.50;98917.88;4847434;29;20031;-74
2023/11/30 11:29:58;;;;;;;0.00;0.00;;;;;;;3.06;79.13;98893.00;4846508;29;20132;-75
2023/11/30 11:32:25;;;;;;;0.00;0.00;;;;;;;3.16;79.83;98914.72;4844097;29;20037;-74
2023/11/30 11:34:50;;;;;;;0.00;0.00;;;;;;;3.19;79.61;98908.00;4845571;29;20037;-74